sensor_id;sensor_type;location;lat;lon;timestamp;pressure;altitude;pressure_sealevel;temperature;humidity
8575;BME280;4325;42.520;27.448;2023-12-20T00:02:01;101564.50;;;3.95;100.00
8575;BME280;4325;42.520;27.448;2023-12-20T00:04:28;101564.50;;;3.95;100.00
8575;BME280;4325;42.520;27.448;2023-12-20T00:06:55;101548.25;;;3.95;100.00
8575;BME280;4325;42.520;27.448;2023-12-20T00:09:22;101564.09;;;3.98;100.00
8575;BME280;4325;42.520;27.448;2023-12-20T00:11:49;101558.25;;;3.95;100.00
8575;BME280;4325;42.520;27.448;2023-12-20T00:14:18;101566.59;;;3.93;100.00
8575;BME280;4325;42.520;27.448;2023-12-20T00:16:45;101561.19;;;3.93;100.00
8575;BME280;4325;42.520;27.448;2023-12-20T00:19:12;101552.63;;;3.90;100.00
8575;BME280;4325;42.520;27.448;2023-12-20T00:21:39;101545.75;;;3.87;100.00
8575;BME280;4325;42.520;27.448;2023-12-20T00:24:06;101540.78;;;3.84;100.00
8575;BME280;4325;42.520;27.448;2023-12-20T00:26:33;101538.88;;;3.78;100.00
8575;BME280;4325;42.520;27.448;2023-12-20T00:29:01;101534.50;;;3.77;100.00
8575;BME280;4325;42.520;27.448;2023-12-20T00:31:29;101532.44;;;3.79;100.00
8575;BME280;4325;42.520;27.448;2023-12-20T00:33:56;101524.72;;;3.76;100.00
8575;BME280;4325;42.520;27.448;2023-12-20T00:36:23;101523.88;;;3.76;100.00
8575;BME280;4325;42.520;27.448;2023-12-20T00:38:50;101521.38;;;3.74;100.00
8575;BME280;4325;42.520;27.448;2023-12-20T00:41:18;101530.31;;;3.75;100.00
8575;BME280;4325;42.520;27.448;2023-12-20T00:43:45;101515.75;;;3.69;100.00
8575;BME280;4325;42.520;27.448;2023-12-20T00:46:12;101515.94;;;3.68;100.00
8575;BME280;4325;42.520;27.448;2023-12-20T00:48:41;101510.75;;;3.66;100.00
8575;BME280;4325;42.520;27.448;2023-12-20T00:51:14;101498.88;;;3.67;100.00
8575;BME280;4325;42.520;27.448;2023-12-20T00:53:41;101501.59;;;3.67;100.00
8575;BME280;4325;42.520;27.448;2023-12-20T00:56:08;101492.00;;;3.71;100.00
8575;BME280;4325;42.520;27.448;2023-12-20T00:58:35;101489.50;;;3.70;100.00
8575;BME280;4325;42.520;27.448;2023-12-20T01:01:03;101485.56;;;3.72;100.00
8575;BME280;4325;42.520;27.448;2023-12-20T01:03:30;101481.56;;;3.75;100.00
8575;BME280;4325;42.520;27.448;2023-12-20T01:05:58;101475.13;;;3.76;100.00
8575;BME280;4325;42.520;27.448;2023-12-20T01:08:25;101473.25;;;3.76;100.00
8575;BME280;4325;42.520;27.448;2023-12-20T01:10:52;101479.91;;;3.74;100.00
8575;BME280;4325;42.520;27.448;2023-12-20T01:13:19;101483.47;;;3.74;100.00
8575;BME280;4325;42.520;27.448;2023-12-20T01:15:46;101477.00;;;3.75;100.00
8575;BME280;4325;42.520;27.448;2023-12-20T01:18:14;101472.81;;;3.73;100.00
8575;BME280;4325;42.520;27.448;2023-12-20T01:20:41;101465.94;;;3.70;100.00
8575;BME280;4325;42.520;27.448;2023-12-20T01:23:09;101467.84;;;3.70;100.00
8575;BME280;4325;42.520;27.448;2023-12-20T01:25:36;101460.13;;;3.67;100.00
8575;BME280;4325;42.520;27.448;2023-12-20T01:28:04;101461.78;;;3.61;100.00
8575;BME280;4325;42.520;27.448;2023-12-20T01:30:31;101467.00;;;3.56;100.00
8575;BME280;4325;42.520;27.448;2023-12-20T01:32:59;101460.56;;;3.57;100.00
8575;BME280;4325;42.520;27.448;2023-12-20T01:35:27;101452.44;;;3.57;100.00
8575;BME280;4325;42.520;27.448;2023-12-20T01:37:54;101447.44;;;3.54;100.00
8575;BME280;4325;42.520;27.448;2023-12-20T01:40:23;101446.19;;;3.50;100.00
8575;BME280;4325;42.520;27.448;2023-12-20T01:42:58;101437.00;;;3.51;100.00
8575;BME280;4325;42.520;27.448;2023-12-20T01:45:25;101433.28;;;3.52;100.00
8575;BME280;4325;42.520;27.448;2023-12-20T01:47:53;101432.84;;;3.49;100.00
8575;BME280;4325;42.520;27.448;2023-12-20T01:50:21;101439.94;;;3.43;100.00
8575;BME280;4325;42.520;27.448;2023-12-20T01:52:48;101435.56;;;3.36;100.00
8575;BME280;4325;42.520;27.448;2023-12-20T01:55:18;101439.53;;;3.33;100.00
8575;BME280;4325;42.520;27.448;2023-12-20T01:57:46;101432.03;;;3.28;100.00
8575;BME280;4325;42.520;27.448;2023-12-20T02:00:14;101428.69;;;3.33;100.00
8575;BME280;4325;42.520;27.448;2023-12-20T02:02:42;101426.78;;;3.33;100.00
8575;BME280;4325;42.520;27.448;2023-12-20T02:05:10;101429.09;;;3.37;100.00
8575;BME280;4325;42.520;27.448;2023-12-20T02:07:37;101417.84;;;3.40;100.00
8575;BME280;4325;42.520;27.448;2023-12-20T02:10:05;101408.69;;;3.47;100.00
8575;BME280;4325;42.520;27.448;2023-12-20T02:12:32;101405.34;;;3.58;100.00
8575;BME280;4325;42.520;27.448;2023-12-20T02:15:01;101404.72;;;3.69;100.00
8575;BME280;4325;42.520;27.448;2023-12-20T02:17:28;101403.69;;;3.77;100.00
8575;BME280;4325;42.520;27.448;2023-12-20T02:19:56;101397.81;;;3.80;100.00
8575;BME280;4325;42.520;27.448;2023-12-20T02:22:25;101392.00;;;3.76;100.00
8575;BME280;4325;42.520;27.448;2023-12-20T02:24:52;101391.59;;;3.73;100.00
8575;BME280;4325;42.520;27.448;2023-12-20T02:27:19;101377.03;;;3.67;100.00
8575;BME280;4325;42.520;27.448;2023-12-20T02:29:47;101384.72;;;3.64;100.00
8575;BME280;4325;42.520;27.448;2023-12-20T02:32:15;101378.47;;;3.63;100.00
8575;BME280;4325;42.520;27.448;2023-12-20T02:34:43;101382.03;;;3.57;100.00
8575;BME280;4325;42.520;27.448;2023-12-20T02:37:10;101391.41;;;3.55;100.00
8575;BME280;4325;42.520;27.448;2023-12-20T02:39:38;101393.50;;;3.53;100.00
8575;BME280;4325;42.520;27.448;2023-12-20T02:42:05;101392.03;;;3.44;100.00
8575;BME280;4325;42.520;27.448;2023-12-20T02:44:32;101378.28;;;3.39;100.00
8575;BME280;4325;42.520;27.448;2023-12-20T02:46:59;101378.91;;;3.34;100.00
8575;BME280;4325;42.520;27.448;2023-12-20T02:49:26;101378.72;;;3.29;100.00
8575;BME280;4325;42.520;27.448;2023-12-20T02:51:53;101371.66;;;3.28;100.00
8575;BME280;4325;42.520;27.448;2023-12-20T02:54:20;101377.25;;;3.26;100.00
8575;BME280;4325;42.520;27.448;2023-12-20T02:56:49;101369.16;;;3.20;100.00
8575;BME280;4325;42.520;27.448;2023-12-20T02:59:16;101368.31;;;3.19;100.00
8575;BME280;4325;42.520;27.448;2023-12-20T03:01:44;101368.31;;;3.19;100.00
8575;BME280;4325;42.520;27.448;2023-12-20T03:04:12;101362.50;;;3.16;100.00
8575;BME280;4325;42.520;27.448;2023-12-20T03:06:38;101362.91;;;3.13;100.00
8575;BME280;4325;42.520;27.448;2023-12-20T03:09:05;101362.47;;;3.09;100.00
8575;BME280;4325;42.520;27.448;2023-12-20T03:11:33;101352.50;;;2.97;100.00
8575;BME280;4325;42.520;27.448;2023-12-20T03:14:01;101361.66;;;2.89;100.00
8575;BME280;4325;42.520;27.448;2023-12-20T03:16:28;101352.47;;;2.84;100.00
8575;BME280;4325;42.520;27.448;2023-12-20T03:18:56;101349.56;;;2.79;100.00
8575;BME280;4325;42.520;27.448;2023-12-20T03:21:23;101347.25;;;2.76;100.00
8575;BME280;4325;42.520;27.448;2023-12-20T03:23:51;101353.28;;;2.78;100.00
8575;BME280;4325;42.520;27.448;2023-12-20T03:26:18;101347.88;;;2.78;100.00
8575;BME280;4325;42.520;27.448;2023-12-20T03:28:45;101348.09;;;2.83;100.00
8575;BME280;4325;42.520;27.448;2023-12-20T03:31:13;101341.22;;;2.80;100.00
8575;BME280;4325;42.520;27.448;2023-12-20T03:33:40;101336.03;;;2.72;100.00
8575;BME280;4325;42.520;27.448;2023-12-20T03:36:07;101333.06;;;2.60;100.00
8575;BME280;4325;42.520;27.448;2023-12-20T03:38:35;101324.16;;;2.60;100.00
8575;BME280;4325;42.520;27.448;2023-12-20T03:41:02;101328.72;;;2.59;100.00
8575;BME280;4325;42.520;27.448;2023-12-20T03:43:29;101331.22;;;2.54;100.00
8575;BME280;4325;42.520;27.448;2023-12-20T03:45:56;101329.53;;;2.53;100.00
8575;BME280;4325;42.520;27.448;2023-12-20T03:48:25;101322.47;;;2.52;100.00
8575;BME280;4325;42.520;27.448;2023-12-20T03:50:52;101314.78;;;2.49;100.00
8575;BME280;4325;42.520;27.448;2023-12-20T03:53:19;101310.41;;;2.48;100.00
8575;BME280;4325;42.520;27.448;2023-12-20T03:55:46;101307.91;;;2.40;100.00
8575;BME280;4325;42.520;27.448;2023-12-20T03:58:13;101313.31;;;2.47;100.00
8575;BME280;4325;42.520;27.448;2023-12-20T04:00:40;101307.50;;;2.43;100.00
8575;BME280;4325;42.520;27.448;2023-12-20T04:03:07;101308.13;;;2.45;100.00
8575;BME280;4325;42.520;27.448;2023-12-20T04:05:36;101311.03;;;2.50;100.00
8575;BME280;4325;42.520;27.448;2023-12-20T04:08:03;101309.16;;;2.51;100.00
8575;BME280;4325;42.520;27.448;2023-12-20T04:10:31;101309.16;;;2.51;100.00
8575;BME280;4325;42.520;27.448;2023-12-20T04:12:58;101316.69;;;2.55;100.00
8575;BME280;4325;42.520;27.448;2023-12-20T04:15:25;101311.66;;;2.59;100.00
8575;BME280;4325;42.520;27.448;2023-12-20T04:17:52;101304.81;;;2.56;100.00
8575;BME280;4325;42.520;27.448;2023-12-20T04:20:19;101301.47;;;2.54;100.00
8575;BME280;4325;42.520;27.448;2023-12-20T04:22:47;101295.44;;;2.52;100.00
8575;BME280;4325;42.520;27.448;2023-12-20T04:25:14;101293.78;;;2.51;100.00
8575;BME280;4325;42.520;27.448;2023-12-20T04:27:41;101299.63;;;2.61;100.00
8575;BME280;4325;42.520;27.448;2023-12-20T04:30:09;101305.03;;;2.68;100.00
8575;BME280;4325;42.520;27.448;2023-12-20T04:32:36;101296.72;;;2.76;100.00
8575;BME280;4325;42.520;27.448;2023-12-20T04:35:04;101291.75;;;2.80;100.00
8575;BME280;4325;42.520;27.448;2023-12-20T04:37:31;101295.25;;;2.80;100.00
8575;BME280;4325;42.520;27.448;2023-12-20T04:39:59;101300.88;;;2.79;100.00
8575;BME280;4325;42.520;27.448;2023-12-20T04:42:27;101305.25;;;2.66;100.00
8575;BME280;4325;42.520;27.448;2023-12-20T04:44:54;101298.16;;;2.65;100.00
8575;BME280;4325;42.520;27.448;2023-12-20T04:47:21;101300.03;;;2.65;100.00
8575;BME280;4325;42.520;27.448;2023-12-20T04:49:48;101291.72;;;2.66;100.00
8575;BME280;4325;42.520;27.448;2023-12-20T04:52:15;101296.69;;;2.63;100.00
8575;BME280;4325;42.520;27.448;2023-12-20T04:54:42;101292.53;;;2.60;100.00
8575;BME280;4325;42.520;27.448;2023-12-20T04:57:11;101285.88;;;2.56;100.00
8575;BME280;4325;42.520;27.448;2023-12-20T04:59:38;101287.13;;;2.54;100.00
8575;BME280;4325;42.520;27.448;2023-12-20T05:02:05;101277.97;;;2.48;100.00
8575;BME280;4325;42.520;27.448;2023-12-20T05:04:32;101280.03;;;2.46;100.00
8575;BME280;4325;42.520;27.448;2023-12-20T05:06:59;101279.19;;;2.39;100.00
8575;BME280;4325;42.520;27.448;2023-12-20T05:09:26;101268.78;;;2.36;100.00
8575;BME280;4325;42.520;27.448;2023-12-20T05:11:53;101275.88;;;2.44;100.00
8575;BME280;4325;42.520;27.448;2023-12-20T05:14:21;101276.31;;;2.47;100.00
8575;BME280;4325;42.520;27.448;2023-12-20T05:16:48;101276.72;;;2.51;100.00
8575;BME280;4325;42.520;27.448;2023-12-20T05:19:15;101272.16;;;2.51;100.00
8575;BME280;4325;42.520;27.448;2023-12-20T05:21:42;101273.81;;;2.52;100.00
8575;BME280;4325;42.520;27.448;2023-12-20T05:24:09;101270.50;;;2.50;100.00
8575;BME280;4325;42.520;27.448;2023-12-20T05:26:36;101272.16;;;2.51;100.00
8575;BME280;4325;42.520;27.448;2023-12-20T05:29:03;101271.31;;;2.44;100.00
8575;BME280;4325;42.520;27.448;2023-12-20T05:31:32;101261.97;;;2.40;100.00
8575;BME280;4325;42.520;27.448;2023-12-20T05:33:59;101264.66;;;2.40;100.00
8575;BME280;4325;42.520;27.448;2023-12-20T05:36:26;101268.00;;;2.42;100.00
8575;BME280;4325;42.520;27.448;2023-12-20T05:38:54;101269.66;;;2.43;100.00
8575;BME280;4325;42.520;27.448;2023-12-20T05:41:21;101269.44;;;2.45;100.00
8575;BME280;4325;42.520;27.448;2023-12-20T05:43:48;101263.00;;;2.39;100.00
8575;BME280;4325;42.520;27.448;2023-12-20T05:46:15;101266.31;;;2.41;100.00
8575;BME280;4325;42.520;27.448;2023-12-20T05:48:43;101273.00;;;2.45;100.00
8575;BME280;4325;42.520;27.448;2023-12-20T05:51:11;101270.09;;;2.66;100.00
8575;BME280;4325;42.520;27.448;2023-12-20T05:53:39;101260.53;;;2.71;100.00
8575;BME280;4325;42.520;27.448;2023-12-20T05:56:06;101273.22;;;2.77;100.00
8575;BME280;4325;42.520;27.448;2023-12-20T05:58:33;101273.19;;;2.90;100.00
8575;BME280;4325;42.520;27.448;2023-12-20T06:01:00;101257.59;;;3.18;100.00
8575;BME280;4325;42.520;27.448;2023-12-20T06:03:28;101268.34;;;3.44;100.00
8575;BME280;4325;42.520;27.448;2023-12-20T06:05:56;101261.94;;;3.89;100.00
8575;BME280;4325;42.520;27.448;2023-12-20T06:08:23;101262.53;;;4.36;100.00
8575;BME280;4325;42.520;27.448;2023-12-20T06:10:50;101256.00;;;4.99;100.00
8575;BME280;4325;42.520;27.448;2023-12-20T06:13:17;101252.75;;;5.52;100.00
8575;BME280;4325;42.520;27.448;2023-12-20T06:15:44;101261.81;;;6.00;100.00
8575;BME280;4325;42.520;27.448;2023-12-20T06:18:11;101255.47;;;6.36;100.00
8575;BME280;4325;42.520;27.448;2023-12-20T06:20:38;101260.44;;;7.03;100.00
8575;BME280;4325;42.520;27.448;2023-12-20T06:23:07;101271.81;;;7.35;100.00
8575;BME280;4325;42.520;27.448;2023-12-20T06:25:34;101271.56;;;7.71;100.00
8575;BME280;4325;42.520;27.448;2023-12-20T06:28:01;101265.91;;;8.41;100.00
8575;BME280;4325;42.520;27.448;2023-12-20T06:30:31;101263.31;;;8.79;100.00
8575;BME280;4325;42.520;27.448;2023-12-20T06:33:01;101259.75;;;9.67;100.00
8575;BME280;4325;42.520;27.448;2023-12-20T06:35:28;101253.72;;;10.56;100.00
8575;BME280;4325;42.520;27.448;2023-12-20T06:37:55;101249.03;;;11.15;92.89
8575;BME280;4325;42.520;27.448;2023-12-20T06:40:23;101246.69;;;12.43;85.01
8575;BME280;4325;42.520;27.448;2023-12-20T06:42:50;101246.72;;;13.34;72.91
8575;BME280;4325;42.520;27.448;2023-12-20T06:45:17;101253.03;;;13.49;62.47
8575;BME280;4325;42.520;27.448;2023-12-20T06:47:44;101254.94;;;13.44;61.86
8575;BME280;4325;42.520;27.448;2023-12-20T06:50:11;101240.69;;;12.96;64.25
8575;BME280;4325;42.520;27.448;2023-12-20T06:52:38;101243.13;;;12.78;61.57
8575;BME280;4325;42.520;27.448;2023-12-20T06:55:06;101246.22;;;13.06;64.25
8575;BME280;4325;42.520;27.448;2023-12-20T06:57:34;101239.25;;;14.23;60.43
8575;BME280;4325;42.520;27.448;2023-12-20T07:00:02;101237.00;;;15.13;55.16
8575;BME280;4325;42.520;27.448;2023-12-20T07:02:29;101234.66;;;15.25;53.47
8575;BME280;4325;42.520;27.448;2023-12-20T07:04:57;101230.03;;;15.73;51.68
8575;BME280;4325;42.520;27.448;2023-12-20T07:07:24;101230.44;;;15.85;50.49
8575;BME280;4325;42.520;27.448;2023-12-20T07:09:52;101233.09;;;16.14;48.46
8575;BME280;4325;42.520;27.448;2023-12-20T07:12:19;101228.91;;;16.77;47.39
8575;BME280;4325;42.520;27.448;2023-12-20T07:14:47;101228.91;;;16.77;45.98
8575;BME280;4325;42.520;27.448;2023-12-20T07:17:14;101220.00;;;17.12;45.48
8575;BME280;4325;42.520;27.448;2023-12-20T07:19:41;101231.59;;;17.60;44.25
8575;BME280;4325;42.520;27.448;2023-12-20T07:22:09;101229.16;;;17.59;43.51
8575;BME280;4325;42.520;27.448;2023-12-20T07:24:36;101222.34;;;18.19;42.48
8575;BME280;4325;42.520;27.448;2023-12-20T07:27:03;101229.75;;;18.10;41.59
8575;BME280;4325;42.520;27.448;2023-12-20T07:29:31;101220.03;;;17.86;41.45
8575;BME280;4325;42.520;27.448;2023-12-20T07:31:59;101223.19;;;18.06;41.47
8575;BME280;4325;42.520;27.448;2023-12-20T07:34:26;101214.28;;;19.03;39.96
8575;BME280;4325;42.520;27.448;2023-12-20T07:36:53;101201.44;;;19.77;38.53
8575;BME280;4325;42.520;27.448;2023-12-20T07:39:20;101191.75;;;21.17;36.52
8575;BME280;4325;42.520;27.448;2023-12-20T07:41:49;101197.88;;;21.94;35.00
8575;BME280;4325;42.520;27.448;2023-12-20T07:44:16;101185.13;;;22.34;34.20
8575;BME280;4325;42.520;27.448;2023-12-20T07:46:43;101195.19;;;22.48;33.52
8575;BME280;4325;42.520;27.448;2023-12-20T07:49:12;101177.06;;;22.95;32.79
8575;BME280;4325;42.520;27.448;2023-12-20T07:51:39;101185.25;;;23.57;31.60
8575;BME280;4325;42.520;27.448;2023-12-20T07:54:06;101192.59;;;23.49;31.48
8575;BME280;4325;42.520;27.448;2023-12-20T07:56:33;101194.22;;;22.02;32.90
8575;BME280;4325;42.520;27.448;2023-12-20T07:59:00;101195.91;;;20.68;34.48
8575;BME280;4325;42.520;27.448;2023-12-20T08:01:28;101186.06;;;20.87;34.86
8575;BME280;4325;42.520;27.448;2023-12-20T08:03:56;101184.44;;;22.79;33.36
8575;BME280;4325;42.520;27.448;2023-12-20T08:06:25;101169.66;;;25.12;31.04
8575;BME280;4325;42.520;27.448;2023-12-20T08:08:52;101171.88;;;26.85;28.34
8575;BME280;4325;42.520;27.448;2023-12-20T08:11:19;101156.03;;;27.87;29.48
8575;BME280;4325;42.520;27.448;2023-12-20T08:13:46;101156.59;;;28.22;28.83
8575;BME280;4325;42.520;27.448;2023-12-20T08:16:13;101156.22;;;28.83;26.58
8575;BME280;4325;42.520;27.448;2023-12-20T08:18:43;101143.78;;;29.68;25.42
8575;BME280;4325;42.520;27.448;2023-12-20T08:21:09;101138.06;;;28.51;25.51
8575;BME280;4325;42.520;27.448;2023-12-20T08:23:38;101136.53;;;29.23;25.71
8575;BME280;4325;42.520;27.448;2023-12-20T08:26:05;101145.63;;;30.66;24.76
8575;BME280;4325;42.520;27.448;2023-12-20T08:28:32;101139.31;;;31.25;23.52
8575;BME280;4325;42.520;27.448;2023-12-20T08:30:59;101135.47;;;29.02;23.95
8575;BME280;4325;42.520;27.448;2023-12-20T08:33:27;101134.63;;;27.33;25.68
8575;BME280;4325;42.520;27.448;2023-12-20T08:35:54;101120.91;;;26.29;26.52
8575;BME280;4325;42.520;27.448;2023-12-20T08:38:21;101114.50;;;25.94;26.98
8575;BME280;4325;42.520;27.448;2023-12-20T08:40:49;101113.28;;;26.87;27.69
8575;BME280;4325;42.520;27.448;2023-12-20T08:43:16;101116.13;;;27.55;25.73
8575;BME280;4325;42.520;27.448;2023-12-20T08:45:44;101124.97;;;26.51;27.17
8575;BME280;4325;42.520;27.448;2023-12-20T08:48:11;101119.66;;;26.46;27.44
8575;BME280;4325;42.520;27.448;2023-12-20T08:50:38;101100.75;;;27.26;26.22
8575;BME280;4325;42.520;27.448;2023-12-20T08:53:05;101098.28;;;28.23;26.05
8575;BME280;4325;42.520;27.448;2023-12-20T08:55:32;101090.44;;;26.89;26.79
8575;BME280;4325;42.520;27.448;2023-12-20T08:58:01;101082.66;;;25.86;28.77
8575;BME280;4325;42.520;27.448;2023-12-20T09:00:28;101078.94;;;26.97;27.17
8575;BME280;4325;42.520;27.448;2023-12-20T09:02:55;101078.28;;;26.43;27.12
8575;BME280;4325;42.520;27.448;2023-12-20T09:05:22;101056.94;;;24.59;29.39
8575;BME280;4325;42.520;27.448;2023-12-20T09:07:49;101056.31;;;25.25;29.84
8575;BME280;4325;42.520;27.448;2023-12-20T09:10:16;101049.41;;;28.08;27.76
8575;BME280;4325;42.520;27.448;2023-12-20T09:12:47;101042.44;;;28.61;26.11
8575;BME280;4325;42.520;27.448;2023-12-20T09:15:16;101046.00;;;28.95;25.08
8575;BME280;4325;42.520;27.448;2023-12-20T09:17:43;101030.78;;;29.07;26.00
8575;BME280;4325;42.520;27.448;2023-12-20T09:20:10;101034.59;;;29.79;24.53
8575;BME280;4325;42.520;27.448;2023-12-20T09:22:39;101037.75;;;30.57;23.64
8575;BME280;4325;42.520;27.448;2023-12-20T09:25:08;101033.94;;;30.11;23.97
8575;BME280;4325;42.520;27.448;2023-12-20T09:27:36;101034.47;;;29.62;24.32
8575;BME280;4325;42.520;27.448;2023-12-20T09:30:04;101027.06;;;29.43;24.19
8575;BME280;4325;42.520;27.448;2023-12-20T09:32:33;101016.84;;;31.18;25.24
8575;BME280;4325;42.520;27.448;2023-12-20T09:35:00;101010.66;;;32.04;22.37
8575;BME280;4325;42.520;27.448;2023-12-20T09:37:28;101013.09;;;30.40;23.42
8575;BME280;4325;42.520;27.448;2023-12-20T09:39:55;100998.38;;;29.99;24.83
8575;BME280;4325;42.520;27.448;2023-12-20T09:42:28;101000.25;;;29.16;24.66
8575;BME280;4325;42.520;27.448;2023-12-20T09:44:59;100991.38;;;28.33;26.02
8575;BME280;4325;42.520;27.448;2023-12-20T09:47:28;100977.84;;;28.46;25.46
8575;BME280;4325;42.520;27.448;2023-12-20T09:49:57;100980.91;;;28.30;25.71
8575;BME280;4325;42.520;27.448;2023-12-20T09:52:24;100973.94;;;30.45;25.16
8575;BME280;4325;42.520;27.448;2023-12-20T09:54:52;100968.91;;;32.81;22.71
8575;BME280;4325;42.520;27.448;2023-12-20T09:57:21;100967.78;;;35.27;21.31
8575;BME280;4325;42.520;27.448;2023-12-20T09:59:48;100952.13;;;36.01;19.47
8575;BME280;4325;42.520;27.448;2023-12-20T10:02:18;100958.25;;;36.55;19.51
8575;BME280;4325;42.520;27.448;2023-12-20T10:04:47;100959.78;;;37.82;18.39
8575;BME280;4325;42.520;27.448;2023-12-20T10:07:16;100960.53;;;38.65;18.38
8575;BME280;4325;42.520;27.448;2023-12-20T10:09:44;100952.34;;;36.78;17.82
8575;BME280;4325;42.520;27.448;2023-12-20T10:12:12;100943.69;;;36.50;19.05
8575;BME280;4325;42.520;27.448;2023-12-20T10:14:39;100928.69;;;37.42;18.29
8575;BME280;4325;42.520;27.448;2023-12-20T10:17:06;100941.53;;;35.62;19.01
8575;BME280;4325;42.520;27.448;2023-12-20T10:19:52;100926.53;;;33.48;20.82
8575;BME280;4325;42.520;27.448;2023-12-20T10:22:21;100917.75;;;34.30;20.76
8575;BME280;4325;42.520;27.448;2023-12-20T10:24:48;100901.06;;;36.91;19.56
8575;BME280;4325;42.520;27.448;2023-12-20T10:27:18;100905.66;;;38.66;17.54
8575;BME280;4325;42.520;27.448;2023-12-20T10:29:45;100899.81;;;38.82;17.54
8575;BME280;4325;42.520;27.448;2023-12-20T10:32:23;100903.06;;;37.39;18.27
8575;BME280;4325;42.520;27.448;2023-12-20T10:34:50;100899.38;;;38.59;17.77
8575;BME280;4325;42.520;27.448;2023-12-20T10:37:17;100890.75;;;38.97;17.18
8575;BME280;4325;42.520;27.448;2023-12-20T10:39:49;100892.88;;;40.04;16.04
8575;BME280;4325;42.520;27.448;2023-12-20T10:42:20;100890.19;;;40.99;16.49
8575;BME280;4325;42.520;27.448;2023-12-20T10:44:49;100884.50;;;40.77;15.45
8575;BME280;4325;42.520;27.448;2023-12-20T10:47:16;100883.09;;;40.02;15.63
8575;BME280;4325;42.520;27.448;2023-12-20T10:49:45;100880.47;;;37.86;17.53
8575;BME280;4325;42.520;27.448;2023-12-20T10:52:12;100874.50;;;36.62;18.20
8575;BME280;4325;42.520;27.448;2023-12-20T10:54:40;100871.56;;;35.97;19.25
8575;BME280;4325;42.520;27.448;2023-12-20T10:57:08;100864.41;;;35.10;19.59
8575;BME280;4325;42.520;27.448;2023-12-20T10:59:37;100863.34;;;35.63;19.79
8575;BME280;4325;42.520;27.448;2023-12-20T11:02:06;100854.81;;;36.51;19.06
8575;BME280;4325;42.520;27.448;2023-12-20T11:04:38;100848.97;;;37.73;17.81
8575;BME280;4325;42.520;27.448;2023-12-20T11:07:17;100846.38;;;38.16;18.07
8575;BME280;4325;42.520;27.448;2023-12-20T11:09:54;100842.28;;;38.89;17.47
8575;BME280;4325;42.520;27.448;2023-12-20T11:12:35;100831.56;;;38.81;17.18
8575;BME280;4325;42.520;27.448;2023-12-20T11:15:06;100835.28;;;38.56;17.22
8575;BME280;4325;42.520;27.448;2023-12-20T11:17:34;100832.34;;;39.16;17.15
8575;BME280;4325;42.520;27.448;2023-12-20T11:20:06;100815.44;;;40.80;16.27
8575;BME280;4325;42.520;27.448;2023-12-20T11:22:36;100819.75;;;40.76;16.00
8575;BME280;4325;42.520;27.448;2023-12-20T11:25:05;100813.25;;;38.66;16.74
8575;BME280;4325;42.520;27.448;2023-12-20T11:27:35;100812.22;;;37.46;18.10
8575;BME280;4325;42.520;27.448;2023-12-20T11:30:04;100802.59;;;36.83;17.87
8575;BME280;4325;42.520;27.448;2023-12-20T11:32:34;100803.03;;;37.26;17.69
8575;BME280;4325;42.520;27.448;2023-12-20T11:35:16;100790.28;;;36.57;18.20
8575;BME280;4325;42.520;27.448;2023-12-20T11:37:45;100796.63;;;37.22;18.43
8575;BME280;4325;42.520;27.448;2023-12-20T11:40:15;100783.38;;;38.20;17.75
8575;BME280;4325;42.520;27.448;2023-12-20T11:42:45;100778.22;;;37.90;17.44
8575;BME280;4325;42.520;27.448;2023-12-20T11:45:14;100764.06;;;36.91;17.93
8575;BME280;4325;42.520;27.448;2023-12-20T11:47:43;100764.72;;;34.02;20.18
8575;BME280;4325;42.520;27.448;2023-12-20T11:50:10;100763.03;;;34.54;20.07
8575;BME280;4325;42.520;27.448;2023-12-20T11:52:38;100748.09;;;35.68;19.23
8575;BME280;4325;42.520;27.448;2023-12-20T11:55:05;100743.19;;;33.47;20.58
8575;BME280;4325;42.520;27.448;2023-12-20T11:57:33;100741.03;;;30.36;23.80
8575;BME280;4325;42.520;27.448;2023-12-20T12:00:02;100733.47;;;28.97;25.10
8575;BME280;4325;42.520;27.448;2023-12-20T12:02:30;100724.69;;;28.37;26.33
8575;BME280;4325;42.520;27.448;2023-12-20T12:04:57;100722.44;;;28.09;26.80
8575;BME280;4325;42.520;27.448;2023-12-20T12:07:25;100725.06;;;27.48;27.36
8575;BME280;4325;42.520;27.448;2023-12-20T12:09:52;100716.84;;;27.32;27.00
8575;BME280;4325;42.520;27.448;2023-12-20T12:12:20;100715.22;;;28.12;26.55
8575;BME280;4325;42.520;27.448;2023-12-20T12:14:48;100709.94;;;30.29;24.49
8575;BME280;4325;42.520;27.448;2023-12-20T12:17:17;100705.53;;;30.35;24.34
8575;BME280;4325;42.520;27.448;2023-12-20T12:19:44;100701.50;;;30.15;24.57
8575;BME280;4325;42.520;27.448;2023-12-20T12:22:13;100696.47;;;30.96;24.48
8575;BME280;4325;42.520;27.448;2023-12-20T12:24:42;100690.84;;;30.82;23.94
8575;BME280;4325;42.520;27.448;2023-12-20T12:27:09;100689.78;;;31.42;23.70
8575;BME280;4325;42.520;27.448;2023-12-20T12:29:36;100690.31;;;33.83;21.73
8575;BME280;4325;42.520;27.448;2023-12-20T12:32:05;100680.56;;;36.29;19.69
8575;BME280;4325;42.520;27.448;2023-12-20T12:34:34;100694.47;;;37.01;18.36
8575;BME280;4325;42.520;27.448;2023-12-20T12:37:03;100691.00;;;35.55;18.97
8575;BME280;4325;42.520;27.448;2023-12-20T12:39:30;100684.47;;;34.17;20.27
8575;BME280;4325;42.520;27.448;2023-12-20T12:41:57;100687.44;;;33.03;21.31
8575;BME280;4325;42.520;27.448;2023-12-20T12:44:24;100681.34;;;31.86;22.74
8575;BME280;4325;42.520;27.448;2023-12-20T12:46:52;100682.22;;;32.27;22.21
8575;BME280;4325;42.520;27.448;2023-12-20T12:49:19;100674.56;;;31.14;22.95
8575;BME280;4325;42.520;27.448;2023-12-20T12:51:48;100674.91;;;31.85;22.93
8575;BME280;4325;42.520;27.448;2023-12-20T12:54:15;100662.63;;;32.81;22.05
8575;BME280;4325;42.520;27.448;2023-12-20T12:56:44;100658.88;;;32.53;22.24
8575;BME280;4325;42.520;27.448;2023-12-20T12:59:12;100661.88;;;31.95;21.98
8575;BME280;4325;42.520;27.448;2023-12-20T13:01:41;100658.88;;;31.65;22.90
8575;BME280;4325;42.520;27.448;2023-12-20T13:04:08;100658.97;;;32.43;22.07